Time;durP1;ratioP1;P1;durP2;ratioP2;P2;SDS_P1;SDS_P2;PMS_P1;PMS_P2;Temp;Humidity;BMP_temperature;BMP_pressure;BME280_temperature;BME280_humidity;BME280_pressure;Samples;Min_cycle;Max_cycle;Signal;HPM_P1;HPM_P2
2022/07/24 00:01:44;;;;;;;5.03;4.35;;;16.10;99.90;;;;;;5048595;28;20035;-65
2022/07/24 00:04:13;;;;;;;7.63;5.05;;;16.00;99.90;;;;;;5052374;28;21259;-64
2022/07/24 00:06:39;;;;;;;7.32;5.32;;;15.90;99.90;;;;;;5046050;28;20039;-64
2022/07/24 00:09:05;;;;;;;6.20;4.93;;;16.10;99.90;;;;;;5050846;28;20376;-65
2022/07/24 00:11:31;;;;;;;5.80;5.10;;;16.10;99.90;;;;;;5048741;28;20032;-65
2022/07/24 00:13:57;;;;;;;10.05;5.78;;;16.00;99.90;;;;;;5053387;28;20036;-64
2022/07/24 00:16:23;;;;;;;6.55;5.63;;;16.00;99.90;;;;;;5048568;28;20033;-64
2022/07/24 00:18:48;;;;;;;7.40;6.28;;;16.00;99.90;;;;;;5047457;28;20052;-64
2022/07/24 00:21:14;;;;;;;7.85;5.85;;;15.90;99.90;;;;;;5047515;28;20131;-65
2022/07/24 00:23:43;;;;;;;5.93;5.03;;;16.20;99.90;;;;;;5048045;28;20045;-65
2022/07/24 00:26:09;;;;;;;8.90;5.60;;;15.90;99.90;;;;;;5056813;28;20411;-64
2022/07/24 00:28:35;;;;;;;7.18;5.50;;;16.10;99.90;;;;;;5047389;28;20442;-64
2022/07/24 00:31:00;;;;;;;9.02;4.95;;;15.90;99.90;;;;;;5051086;28;20048;-65
2022/07/24 00:33:28;;;;;;;11.23;5.57;;;15.90;99.90;;;;;;5050561;28;20495;-64
2022/07/24 00:35:57;;;;;;;8.50;5.25;;;15.90;99.90;;;;;;5048884;28;20136;-64
2022/07/24 00:38:22;;;;;;;9.00;5.80;;;15.90;99.90;;;;;;5048440;28;20049;-64
2022/07/24 00:40:48;;;;;;;6.05;5.32;;;15.80;99.90;;;;;;5043750;28;20045;-65
2022/07/24 00:43:16;;;;;;;6.63;5.72;;;15.90;99.90;;;;;;5050750;28;20092;-64
2022/07/24 00:45:41;;;;;;;10.00;6.05;;;15.80;99.90;;;;;;5047586;28;20044;-65
2022/07/24 00:48:10;;;;;;;8.20;5.40;;;15.90;99.90;;;;;;5046094;28;20537;-64
2022/07/24 00:50:36;;;;;;;10.40;5.85;;;15.90;99.90;;;;;;5043095;28;20051;-64
2022/07/24 00:53:02;;;;;;;10.65;6.47;;;15.80;99.90;;;;;;5047821;28;20483;-65
2022/07/24 00:55:32;;;;;;;7.07;5.80;;;15.90;99.90;;;;;;5042868;28;20761;-64
2022/07/24 00:57:58;;;;;;;8.48;5.93;;;15.80;99.90;;;;;;5047336;28;20515;-64
2022/07/24 01:00:23;;;;;;;7.32;6.38;;;15.70;99.90;;;;;;5052101;28;20125;-64
2022/07/24 01:02:50;;;;;;;8.10;5.80;;;15.70;99.90;;;;;;5052747;28;20103;-65
2022/07/24 01:05:16;;;;;;;7.00;6.25;;;15.80;99.90;;;;;;5052077;28;20037;-64
2022/07/24 01:07:41;;;;;;;7.18;5.95;;;15.70;99.90;;;;;;5046522;28;20095;-65
2022/07/24 01:10:08;;;;;;;9.18;6.35;;;15.70;99.90;;;;;;5047749;28;20084;-64
2022/07/24 01:12:38;;;;;;;7.53;6.55;;;15.70;99.90;;;;;;5051828;28;20033;-65
2022/07/24 01:15:06;;;;;;;7.93;6.25;;;15.80;99.90;;;;;;5049986;28;20041;-65
2022/07/24 01:17:35;;;;;;;7.90;6.22;;;15.80;99.90;;;;;;5049449;28;20479;-65
2022/07/24 01:20:03;;;;;;;6.95;6.07;;;15.70;99.90;;;;;;5040942;28;20040;-65
2022/07/24 01:22:28;;;;;;;7.50;6.60;;;15.60;99.90;;;;;;5050593;28;20041;-65
2022/07/24 01:24:57;;;;;;;7.20;5.93;;;15.80;99.90;;;;;;5049183;28;20107;-65
2022/07/24 01:27:26;;;;;;;9.40;6.35;;;15.80;99.90;;;;;;5046172;28;20487;-65
2022/07/24 01:29:52;;;;;;;8.80;6.72;;;15.50;99.90;;;;;;5045192;28;20033;-64
2022/07/24 01:32:18;;;;;;;8.43;6.43;;;15.60;99.90;;;;;;5045369;28;20041;-64
2022/07/24 01:34:43;;;;;;;7.90;6.20;;;15.50;99.90;;;;;;5041079;28;20518;-64
2022/07/24 01:37:09;;;;;;;7.30;6.50;;;15.50;99.90;;;;;;5042009;28;20068;-64
2022/07/24 01:39:35;;;;;;;7.68;6.88;;;15.50;99.90;;;;;;5044815;28;20511;-64
2022/07/24 01:42:01;;;;;;;10.95;6.88;;;15.60;99.90;;;;;;5050101;28;20220;-64
2022/07/24 01:44:27;;;;;;;9.43;7.57;;;15.50;99.90;;;;;;5049227;28;20086;-64
2022/07/24 01:46:55;;;;;;;9.13;6.68;;;15.40;99.90;;;;;;5046025;28;20041;-64
2022/07/24 01:49:20;;;;;;;9.50;6.65;;;15.60;99.90;;;;;;5045626;28;20041;-64
2022/07/24 01:51:46;;;;;;;8.05;7.18;;;;;;;;;;5040795;28;20049;-64
2022/07/24 01:54:12;;;;;;;8.15;7.03;;;15.50;99.90;;;;;;5046965;28;20131;-64
2022/07/24 01:56:38;;;;;;;8.98;6.97;;;15.40;99.90;;;;;;5046079;28;20049;-64
2022/07/24 01:59:03;;;;;;;8.45;6.78;;;15.40;99.90;;;;;;5047408;28;20067;-64
2022/07/24 02:01:29;;;;;;;8.02;6.93;;;15.40;99.90;;;;;;5045975;28;20053;-64
2022/07/24 02:03:55;;;;;;;9.73;7.03;;;15.60;99.90;;;;;;5046737;28;20040;-64
2022/07/24 02:06:20;;;;;;;12.30;7.28;;;15.60;99.90;;;;;;5048364;28;20473;-64
2022/07/24 02:08:46;;;;;;;10.05;6.70;;;15.70;99.90;;;;;;5047420;28;20128;-64
2022/07/24 02:11:11;;;;;;;9.38;7.80;;;15.70;99.90;;;;;;5049768;28;20039;-64
2022/07/24 02:13:37;;;;;;;9.43;7.43;;;15.70;99.90;;;;;;5043883;28;20041;-64
2022/07/24 02:16:03;;;;;;;7.10;6.38;;;15.70;99.90;;;;;;5048849;28;20471;-64
2022/07/24 02:18:28;;;;;;;10.95;7.43;;;15.70;99.90;;;;;;5048390;28;20056;-64
2022/07/24 02:20:54;;;;;;;9.30;7.40;;;15.80;99.90;;;;;;5048776;28;20045;-64
2022/07/24 02:23:20;;;;;;;10.68;6.95;;;15.60;99.90;;;;;;5048998;28;20032;-64
2022/07/24 02:25:47;;;;;;;7.80;6.75;;;15.70;99.90;;;;;;5048620;28;20472;-64
2022/07/24 02:28:13;;;;;;;9.50;7.40;;;15.70;99.90;;;;;;5049197;28;20033;-64
2022/07/24 02:30:38;;;;;;;9.00;7.38;;;15.80;99.90;;;;;;5049672;28;20047;-64
2022/07/24 02:33:04;;;;;;;8.57;6.90;;;15.70;99.90;;;;;;5046824;28;20407;-64
2022/07/24 02:35:29;;;;;;;10.63;7.43;;;15.70;99.90;;;;;;5049133;28;20396;-64
2022/07/24 02:37:55;;;;;;;9.63;7.35;;;15.70;99.90;;;;;;5048185;28;20029;-65
2022/07/24 02:40:21;;;;;;;10.43;7.70;;;15.70;99.90;;;;;;5047105;28;20555;-64
2022/07/24 02:42:46;;;;;;;10.85;8.10;;;15.80;99.90;;;;;;5046032;28;20399;-64
2022/07/24 02:45:12;;;;;;;9.60;7.20;;;15.80;99.90;;;;;;5046379;28;20087;-64
2022/07/24 02:47:49;;;;;;;11.50;7.10;;;15.70;99.90;;;;;;5046581;28;20051;-64
2022/07/24 02:50:15;;;;;;;8.63;7.70;;;15.70;99.90;;;;;;5049238;28;20033;-64
2022/07/24 02:52:41;;;;;;;8.20;7.00;;;15.60;99.90;;;;;;5046790;28;20399;-64
2022/07/24 02:55:10;;;;;;;9.88;7.70;;;15.60;99.90;;;;;;5050083;28;20037;-64
2022/07/24 02:57:35;;;;;;;9.07;7.07;;;15.50;99.90;;;;;;5045717;28;20053;-64
2022/07/24 03:00:06;;;;;;;10.93;7.30;;;15.50;99.90;;;;;;5050864;28;20040;-64
2022/07/24 03:02:31;;;;;;;13.88;8.15;;;15.50;99.90;;;;;;5047826;28;20095;-64
2022/07/24 03:04:57;;;;;;;9.75;8.02;;;15.50;99.90;;;;;;5050180;28;20040;-64
2022/07/24 03:07:23;;;;;;;8.32;7.05;;;;;;;;;;5047117;28;20125;-64
2022/07/24 03:09:48;;;;;;;10.65;7.03;;;15.70;99.90;;;;;;5048915;28;20083;-64
2022/07/24 03:12:14;;;;;;;7.85;6.80;;;15.70;99.90;;;;;;5049605;28;20037;-64
2022/07/24 03:14:39;;;;;;;9.13;8.02;;;15.50;99.90;;;;;;5048772;28;20045;-64
2022/07/24 03:17:05;;;;;;;11.02;7.50;;;15.50;99.90;;;;;;5048903;28;20060;-64
2022/07/24 03:19:31;;;;;;;11.57;8.15;;;15.60;99.90;;;;;;5045538;28;20041;-64
2022/07/24 03:21:56;;;;;;;13.60;8.13;;;15.60;99.90;;;;;;5044994;28;20110;-64
2022/07/24 03:24:25;;;;;;;14.15;7.88;;;15.60;99.90;;;;;;5047772;28;20147;-64
2022/07/24 03:26:50;;;;;;;8.38;7.43;;;15.70;99.90;;;;;;5048843;28;20033;-64
2022/07/24 03:29:16;;;;;;;10.30;7.10;;;15.60;99.90;;;;;;5044260;28;20036;-65
2022/07/24 03:31:42;;;;;;;10.40;8.40;;;15.70;99.90;;;;;;5049545;28;20049;-64
2022/07/24 03:34:08;;;;;;;8.73;7.05;;;15.70;99.90;;;;;;5048655;28;20509;-64
2022/07/24 03:36:34;;;;;;;10.38;7.00;;;15.60;99.90;;;;;;5046625;28;20079;-64
2022/07/24 03:39:00;;;;;;;13.10;7.95;;;;;;;;;;5044532;28;20083;-64
2022/07/24 03:41:26;;;;;;;10.02;8.07;;;15.60;99.90;;;;;;5043009;28;20049;-64
2022/07/24 03:43:53;;;;;;;12.02;7.47;;;15.80;99.90;;;;;;5050466;28;20044;-64
2022/07/24 03:46:19;;;;;;;13.35;8.07;;;15.90;99.90;;;;;;5046259;28;20107;-65
2022/07/24 03:48:44;;;;;;;15.25;7.80;;;15.60;99.90;;;;;;5046277;28;20541;-64
2022/07/24 03:51:10;;;;;;;11.70;8.15;;;15.60;99.90;;;;;;5045602;28;20052;-64
2022/07/24 03:53:36;;;;;;;9.95;7.68;;;15.70;99.90;;;;;;5049446;28;20034;-64
2022/07/24 03:56:06;;;;;;;10.15;7.55;;;15.60;99.90;;;;;;5045812;28;20047;-64
2022/07/24 03:58:32;;;;;;;9.75;6.97;;;15.60;99.90;;;;;;5047714;28;20107;-64
2022/07/24 04:01:00;;;;;;;8.73;7.50;;;15.50;99.90;;;;;;5042705;28;20049;-64
2022/07/24 04:03:26;;;;;;;10.95;7.95;;;15.60;99.90;;;;;;5049594;28;20402;-64
2022/07/24 04:05:51;;;;;;;11.13;7.53;;;15.60;99.90;;;;;;5049847;28;20040;-64
2022/07/24 04:08:17;;;;;;;10.75;7.68;;;15.70;99.90;;;;;;5050450;28;20058;-64
2022/07/24 04:10:43;;;;;;;9.63;7.80;;;15.60;99.90;;;;;;5047021;28;20064;-64
2022/07/24 04:13:08;;;;;;;10.50;8.05;;;15.70;99.90;;;;;;5048674;28;20116;-64
2022/07/24 04:15:34;;;;;;;8.45;7.45;;;15.70;99.90;;;;;;5051797;28;20434;-64
2022/07/24 04:17:59;;;;;;;8.65;7.35;;;15.50;99.90;;;;;;5048339;28;20071;-64
2022/07/24 04:20:25;;;;;;;11.90;8.38;;;15.60;99.90;;;;;;5048459;28;20044;-64
2022/07/24 04:22:51;;;;;;;9.90;8.00;;;15.50;99.90;;;;;;5050235;28;20407;-64
2022/07/24 04:25:16;;;;;;;11.10;8.05;;;15.50;99.90;;;;;;5047311;28;20434;-64
2022/07/24 04:27:43;;;;;;;11.23;7.70;;;15.50;99.90;;;;;;5052393;28;20036;-65
2022/07/24 04:30:10;;;;;;;10.00;7.30;;;15.30;99.90;;;;;;5050996;28;20041;-64
2022/07/24 04:32:37;;;;;;;10.07;7.75;;;15.50;99.90;;;;;;5050382;28;20106;-64
2022/07/24 04:35:04;;;;;;;9.25;6.97;;;15.40;99.90;;;;;;5053418;28;20052;-64
2022/07/24 04:37:29;;;;;;;9.25;7.75;;;15.50;99.90;;;;;;5051116;28;20040;-65
2022/07/24 04:39:55;;;;;;;10.30;7.40;;;15.40;99.90;;;;;;5050803;28;20387;-64
2022/07/24 04:42:20;;;;;;;9.10;7.07;;;15.60;99.90;;;;;;5049952;28;20032;-64
2022/07/24 04:44:46;;;;;;;10.85;7.47;;;15.50;99.90;;;;;;5047800;28;20175;-64
2022/07/24 04:47:11;;;;;;;12.00;7.93;;;15.50;99.90;;;;;;5051018;28;20171;-64
2022/07/24 04:49:37;;;;;;;10.10;7.70;;;15.60;99.90;;;;;;5045948;28;20040;-64
2022/07/24 04:52:03;;;;;;;11.77;7.80;;;15.80;99.90;;;;;;5049838;28;20064;-65
2022/07/24 04:54:28;;;;;;;10.73;8.00;;;15.90;99.90;;;;;;5047557;28;20048;-65
2022/07/24 04:56:54;;;;;;;11.02;7.38;;;16.10;99.90;;;;;;5050279;28;20049;-64
2022/07/24 04:59:20;;;;;;;10.40;8.07;;;16.10;99.90;;;;;;5051587;28;20045;-64
2022/07/24 05:01:45;;;;;;;11.43;6.95;;;16.30;99.90;;;;;;5050312;28;20048;-64
2022/07/24 05:04:11;;;;;;;11.52;8.25;;;16.20;99.90;;;;;;5047965;28;20042;-64
2022/07/24 05:06:36;;;;;;;9.35;8.35;;;16.30;99.90;;;;;;5049597;28;20045;-64
2022/07/24 05:09:02;;;;;;;8.60;7.43;;;;;;;;;;5050705;28;20043;-64
2022/07/24 05:11:33;;;;;;;11.10;7.95;;;16.30;99.90;;;;;;5050180;28;20072;-64
2022/07/24 05:13:59;;;;;;;11.82;7.95;;;;;;;;;;5052112;28;20036;-65
2022/07/24 05:16:25;;;;;;;10.30;8.38;;;16.50;99.90;;;;;;5045677;28;20507;-64
2022/07/24 05:18:51;;;;;;;10.25;7.35;;;16.70;99.90;;;;;;5049540;28;20040;-64
2022/07/24 05:21:16;;;;;;;9.90;8.15;;;17.00;99.90;;;;;;5043848;28;20044;-64
2022/07/24 05:23:43;;;;;;;12.02;8.20;;;17.20;99.90;;;;;;5052049;28;20032;-65
2022/07/24 05:26:08;;;;;;;10.70;8.13;;;16.80;99.90;;;;;;5050171;28;20048;-64
2022/07/24 05:28:34;;;;;;;10.18;8.30;;;16.80;99.90;;;;;;5051788;28;20041;-64
2022/07/24 05:30:59;;;;;;;12.25;8.77;;;16.60;99.90;;;;;;5045692;28;20065;-64
2022/07/24 05:33:25;;;;;;;9.93;7.82;;;16.70;99.90;;;;;;5051032;28;20399;-64
2022/07/24 05:35:51;;;;;;;11.70;8.80;;;;;;;;;;5048405;28;20466;-64
2022/07/24 05:38:17;;;;;;;12.40;9.02;;;16.50;99.90;;;;;;5050378;28;20045;-64
2022/07/24 05:40:42;;;;;;;9.93;8.48;;;16.60;99.90;;;;;;5049800;28;20044;-65
2022/07/24 05:43:08;;;;;;;10.15;8.65;;;16.60;99.90;;;;;;5048123;28;20083;-65
2022/07/24 05:45:33;;;;;;;16.08;9.18;;;16.60;99.90;;;;;;5052116;28;20438;-64
2022/07/24 05:47:59;;;;;;;12.18;8.65;;;16.60;99.90;;;;;;5047611;28;20103;-64
2022/07/24 05:50:24;;;;;;;12.32;9.15;;;16.90;99.90;;;;;;5044620;28;20045;-64
2022/07/24 05:52:50;;;;;;;9.82;8.48;;;16.90;99.90;;;;;;5045483;28;20047;-65
2022/07/24 05:55:15;;;;;;;12.15;8.52;;;17.20;99.90;;;;;;5049990;28;20070;-63
2022/07/24 05:57:41;;;;;;;12.70;8.27;;;17.60;99.90;;;;;;5051634;28;20056;-64
2022/07/24 06:00:08;;;;;;;11.52;8.25;;;17.80;99.90;;;;;;5048059;28;20111;-64
2022/07/24 06:02:34;;;;;;;11.77;8.68;;;18.00;99.90;;;;;;5051212;28;20102;-63
2022/07/24 06:05:01;;;;;;;11.60;9.18;;;18.20;99.90;;;;;;5052265;28;20036;-63
2022/07/24 06:07:30;;;;;;;14.48;10.18;;;18.30;99.90;;;;;;5048694;28;20033;-65
2022/07/24 06:09:55;;;;;;;11.35;9.00;;;18.20;99.90;;;;;;5049635;28;20045;-65
2022/07/24 06:12:21;;;;;;;12.35;9.80;;;18.30;99.90;;;;;;5047140;28;20078;-65
2022/07/24 06:14:46;;;;;;;12.70;9.63;;;18.70;99.90;;;;;;5051333;28;20045;-65
2022/07/24 06:17:12;;;;;;;10.70;8.65;;;18.50;99.90;;;;;;5050932;28;20048;-65
2022/07/24 06:19:37;;;;;;;14.10;10.40;;;18.90;99.90;;;;;;5048986;28;20044;-66
2022/07/24 06:22:03;;;;;;;12.63;10.07;;;18.90;99.90;;;;;;5046312;28;20441;-65
2022/07/24 06:24:28;;;;;;;12.25;9.30;;;19.20;99.90;;;;;;5051337;28;20430;-65
2022/07/24 06:26:54;;;;;;;14.50;10.18;;;19.40;99.90;;;;;;5049757;28;20479;-66
2022/07/24 06:29:20;;;;;;;15.00;10.27;;;19.50;99.90;;;;;;5049292;28;20033;-66
2022/07/24 06:31:45;;;;;;;14.85;10.35;;;19.60;99.90;;;;;;5045972;28;20040;-66
2022/07/24 06:34:11;;;;;;;13.85;9.35;;;19.60;99.90;;;;;;5050466;28;20032;-65
2022/07/24 06:36:36;;;;;;;14.32;10.38;;;19.90;99.90;;;;;;5052001;28;20418;-65
2022/07/24 06:39:05;;;;;;;12.13;9.00;;;20.00;99.90;;;;;;5050451;28;20044;-65
2022/07/24 06:41:30;;;;;;;10.93;8.57;;;20.30;99.90;;;;;;5046668;28;20041;-66
2022/07/24 06:43:56;;;;;;;13.13;8.77;;;20.10;99.90;;;;;;5048813;28;20049;-66
2022/07/24 06:46:21;;;;;;;14.52;9.73;;;20.30;99.90;;;;;;5048381;28;20036;-66
2022/07/24 06:48:47;;;;;;;12.35;9.13;;;20.50;99.90;;;;;;5050755;28;20169;-65
2022/07/24 06:51:12;;;;;;;13.25;10.10;;;20.50;99.90;;;;;;5047991;28;20048;-66
2022/07/24 06:53:40;;;;;;;12.55;9.13;;;20.40;99.90;;;;;;5047140;28;20033;-65
2022/07/24 06:56:06;;;;;;;13.20;9.10;;;20.50;99.90;;;;;;5047771;28;20048;-65
2022/07/24 06:58:32;;;;;;;10.70;8.73;;;20.50;99.90;;;;;;5044737;28;20080;-65
2022/07/24 07:00:57;;;;;;;12.65;9.15;;;20.20;99.90;;;;;;5047113;28;20534;-65
2022/07/24 07:03:23;;;;;;;11.18;8.38;;;20.40;99.90;;;;;;5051013;28;20372;-71
2022/07/24 07:05:48;;;;;;;11.27;8.52;;;20.20;99.90;;;;;;5046627;28;20414;-71
2022/07/24 07:08:16;;;;;;;10.82;7.55;;;20.30;99.90;;;;;;5046146;28;20470;-71
2022/07/24 07:10:42;;;;;;;11.90;8.57;;;20.40;99.90;;;;;;5049864;28;20144;-65
2022/07/24 07:13:07;;;;;;;12.80;7.68;;;20.60;99.90;;;;;;5046486;28;20510;-65
2022/07/24 07:15:33;;;;;;;11.45;7.60;;;20.50;99.90;;;;;;5048104;28;20046;-64
2022/07/24 07:18:01;;;;;;;10.75;6.95;;;20.70;99.90;;;;;;5044198;28;20097;-65
2022/07/24 07:20:26;;;;;;;12.35;7.70;;;20.70;99.90;;;;;;5048228;28;20380;-64
2022/07/24 07:22:52;;;;;;;9.88;7.50;;;22.10;99.90;;;;;;5044931;28;20036;-64
2022/07/24 07:25:17;;;;;;;9.25;7.75;;;20.80;99.90;;;;;;5049709;28;20052;-65
2022/07/24 07:27:43;;;;;;;8.55;7.05;;;20.70;99.90;;;;;;5047035;28;20037;-65
2022/07/24 07:30:09;;;;;;;10.70;7.43;;;20.60;99.90;;;;;;5045853;28;20043;-65
2022/07/24 07:32:35;;;;;;;10.00;7.13;;;20.60;99.90;;;;;;5047208;28;20120;-65
2022/07/24 07:35:01;;;;;;;8.35;6.93;;;20.80;99.90;;;;;;5048263;28;20498;-66
2022/07/24 07:37:26;;;;;;;7.65;4.85;;;20.60;99.90;;;;;;5044167;28;20048;-65
2022/07/24 07:39:52;;;;;;;9.05;6.63;;;21.00;99.90;;;;;;5051722;28;20484;-66
2022/07/24 07:42:20;;;;;;;8.95;6.30;;;21.50;99.90;;;;;;5054722;28;20041;-66
2022/07/24 07:44:48;;;;;;;11.18;6.40;;;21.00;99.90;;;;;;5036228;28;20065;-65
2022/07/24 07:47:13;;;;;;;8.23;5.88;;;22.30;99.90;;;;;;5057932;28;20037;-66
2022/07/24 07:49:39;;;;;;;7.45;6.07;;;21.20;99.90;;;;;;5051251;28;20047;-65
2022/07/24 07:52:05;;;;;;;11.25;6.20;;;21.30;99.90;;;;;;5045539;28;20037;-65
2022/07/24 07:54:30;;;;;;;9.65;6.07;;;21.50;99.90;;;;;;5052247;28;20086;-67
2022/07/24 07:56:56;;;;;;;9.02;6.45;;;22.90;99.90;;;;;;5050906;28;20118;-65
2022/07/24 07:59:22;;;;;;;9.05;5.93;;;21.40;99.90;;;;;;5052016;28;20116;-67
2022/07/24 08:01:47;;;;;;;10.30;6.82;;;22.00;99.90;;;;;;5050195;28;20131;-65
2022/07/24 08:04:13;;;;;;;12.32;6.30;;;21.90;99.90;;;;;;5051745;28;20155;-66
2022/07/24 08:06:41;;;;;;;8.32;5.78;;;21.60;99.90;;;;;;5054506;28;20045;-66
2022/07/24 08:09:07;;;;;;;7.72;5.68;;;21.80;99.90;;;;;;5051428;28;20037;-66
2022/07/24 08:11:33;;;;;;;13.27;6.25;;;22.10;99.90;;;;;;5047115;28;20037;-71
2022/07/24 08:13:58;;;;;;;6.70;5.47;;;23.20;99.90;;;;;;5046783;28;20045;-71
2022/07/24 08:16:24;;;;;;;10.45;5.50;;;23.40;99.90;;;;;;5046138;28;20037;-70
2022/07/24 08:18:50;;;;;;;7.32;5.28;;;22.20;99.90;;;;;;5052382;28;20036;-67
2022/07/24 08:21:17;;;;;;;7.57;4.38;;;22.00;99.90;;;;;;5047741;28;20479;-65
2022/07/24 08:23:44;;;;;;;5.35;4.15;;;22.10;99.90;;;;;;5054360;28;20615;-67
2022/07/24 08:26:11;;;;;;;6.18;3.88;;;22.10;99.90;;;;;;5053566;28;20041;-69
2022/07/24 08:28:36;;;;;;;8.52;4.82;;;22.00;99.90;;;;;;5050420;28;20064;-70
2022/07/24 08:31:02;;;;;;;6.78;5.07;;;22.80;99.90;;;;;;5050139;28;20037;-70
2022/07/24 08:33:28;;;;;;;5.13;3.90;;;22.30;99.90;;;;;;5051243;28;20048;-70
2022/07/24 08:35:53;;;;;;;8.27;4.50;;;22.20;99.90;;;;;;5050431;28;20040;-70
2022/07/24 08:38:22;;;;;;;8.45;4.20;;;23.90;99.90;;;;;;5045531;28;20380;-69
2022/07/24 08:40:47;;;;;;;6.88;4.00;;;22.60;99.90;;;;;;5042601;28;20086;-70
2022/07/24 08:43:13;;;;;;;5.15;3.55;;;22.60;99.90;;;;;;5053215;28;20485;-70
2022/07/24 08:45:43;;;;;;;4.38;3.25;;;22.60;99.90;;;;;;5051407;28;20037;-70
2022/07/24 08:48:10;;;;;;;4.82;3.78;;;22.40;99.90;;;;;;5045926;28;20036;-70
2022/07/24 08:50:40;;;;;;;5.10;2.88;;;22.40;99.90;;;;;;5049061;28;20491;-69
2022/07/24 08:53:07;;;;;;;6.53;3.45;;;22.70;99.90;;;;;;5054175;28;20048;-69
2022/07/24 08:55:32;;;;;;;5.45;3.00;;;22.70;99.90;;;;;;5048658;28;20483;-69
2022/07/24 08:58:00;;;;;;;7.47;3.40;;;23.00;99.90;;;;;;5051302;28;20080;-70
2022/07/24 09:00:27;;;;;;;4.97;3.00;;;23.10;99.90;;;;;;5051806;28;20037;-71
2022/07/24 09:02:56;;;;;;;9.07;3.05;;;23.20;99.90;;;;;;5053716;28;20402;-70
2022/07/24 09:05:24;;;;;;;6.70;2.95;;;23.20;99.90;;;;;;5052650;28;20091;-70
2022/07/24 09:07:49;;;;;;;6.00;2.70;;;23.20;99.90;;;;;;5047953;28;20731;-70
2022/07/24 09:10:16;;;;;;;8.02;3.45;;;24.50;99.90;;;;;;5051186;28;20498;-71
2022/07/24 09:12:45;;;;;;;3.70;2.35;;;24.40;99.90;;;;;;5045399;28;20038;-71
2022/07/24 09:15:26;;;;;;;7.43;2.97;;;23.50;99.90;;;;;;5052739;28;20047;-72
2022/07/24 09:17:55;;;;;;;4.38;2.60;;;23.50;99.90;;;;;;5048587;28;20050;-72
2022/07/24 09:20:23;;;;;;;5.60;2.58;;;23.90;99.90;;;;;;5034670;28;20506;-72
2022/07/24 09:22:50;;;;;;;4.57;2.88;;;23.60;99.90;;;;;;5047370;28;20041;-72
2022/07/24 09:25:18;;;;;;;4.35;2.33;;;23.60;99.90;;;;;;5048532;28;20055;-72
2022/07/24 09:27:55;;;;;;;4.50;2.45;;;24.20;99.90;;;;;;5050666;28;20128;-71
2022/07/24 09:30:26;;;;;;;4.35;2.50;;;23.70;99.90;;;;;;5046518;28;20033;-72
2022/07/24 09:33:04;;;;;;;4.63;2.20;;;23.80;99.90;;;;;;5051248;28;20036;-72
2022/07/24 09:35:37;;;;;;;3.83;2.40;;;23.80;99.90;;;;;;5048596;28;20511;-71
2022/07/24 09:38:04;;;;;;;6.32;2.58;;;24.00;99.90;;;;;;5051809;28;20079;-71
2022/07/24 09:40:36;;;;;;;8.55;3.50;;;24.20;99.90;;;;;;5046965;28;20033;-71
2022/07/24 09:43:30;;;;;;;4.15;2.65;;;23.90;99.90;;;;;;5050451;28;20112;-71
2022/07/24 09:46:02;;;;;;;6.78;1.92;;;23.90;99.90;;;;;;5037621;28;20033;-71
2022/07/24 09:48:33;;;;;;;5.25;2.08;;;25.20;99.90;;;;;;5050197;28;20049;-71
2022/07/24 09:51:03;;;;;;;7.88;2.13;;;24.30;99.90;;;;;;5042067;28;20116;-71
2022/07/24 09:53:31;;;;;;;3.65;1.95;;;24.40;99.90;;;;;;5035589;28;20511;-71
2022/07/24 09:56:23;;;;;;;3.10;1.73;;;24.40;99.90;;;;;;5052383;28;20051;-71
2022/07/24 09:58:52;;;;;;;3.92;1.88;;;24.20;99.90;;;;;;5035873;28;20138;-70
2022/07/24 10:01:21;;;;;;;5.63;2.25;;;24.60;99.90;;;;;;5046957;28;20049;-71
2022/07/24 10:03:48;;;;;;;4.20;1.80;;;25.70;99.90;;;;;;5051774;28;20043;-71
2022/07/24 10:06:19;;;;;;;3.75;2.50;;;24.30;99.90;;;;;;5051730;28;20051;-71
2022/07/24 10:08:48;;;;;;;5.07;1.98;;;24.40;99.90;;;;;;5051650;28;20051;-71
2022/07/24 10:11:14;;;;;;;3.67;1.65;;;24.50;99.90;;;;;;5051851;28;20098;-71
2022/07/24 10:13:40;;;;;;;3.70;1.88;;;24.50;99.90;;;;;;5050878;28;20049;-71
2022/07/24 10:16:12;;;;;;;5.63;2.25;;;24.70;99.90;;;;;;5051538;28;20128;-71
2022/07/24 10:18:53;;;;;;;4.00;1.67;;;24.50;99.90;;;;;;5051513;28;20041;-71
2022/07/24 10:21:20;;;;;;;3.80;2.53;;;24.30;99.90;;;;;;5051768;28;20051;-71
2022/07/24 10:24:07;;;;;;;3.20;1.88;;;24.40;99.90;;;;;;5050779;28;20057;-71
2022/07/24 10:26:46;;;;;;;5.03;1.90;;;24.50;99.90;;;;;;5046054;28;20044;-71
2022/07/24 10:29:13;;;;;;;2.80;1.90;;;24.40;99.90;;;;;;5050498;28;20037;-71
2022/07/24 10:31:56;;;;;;;3.88;1.77;;;24.30;99.90;;;;;;5048283;28;20481;-71
2022/07/24 10:35:12;;;;;;;5.72;1.88;;;24.70;99.90;;;;;;5043717;28;20041;-71
2022/07/24 10:37:57;;;;;;;4.78;2.10;;;24.80;99.90;;;;;;5043211;28;20534;-71
2022/07/24 10:40:23;;;;;;;2.15;1.42;;;24.70;99.90;;;;;;5043876;28;20045;-70
2022/07/24 10:43:08;;;;;;;2.42;1.73;;;26.00;99.90;;;;;;5050976;28;20049;-70
2022/07/24 10:45:39;;;;;;;3.38;1.52;;;24.90;99.90;;;;;;5045121;28;20048;-70
2022/07/24 10:48:26;;;;;;;4.38;1.70;;;24.80;99.90;;;;;;5034473;28;20045;-70
2022/07/24 10:51:02;;;;;;;5.85;1.80;;;24.60;99.90;;;;;;5046570;28;20063;-71
2022/07/24 10:53:35;;;;;;;4.45;3.13;;;26.30;99.90;;;;;;5050435;28;20040;-70
2022/07/24 10:56:22;;;;;;;2.25;1.60;;;24.80;99.90;;;;;;5051958;28;20052;-70
2022/07/24 10:59:01;;;;;;;4.15;1.95;;;25.80;99.90;;;;;;5037072;28;20396;-70
2022/07/24 11:01:29;;;;;;;4.70;1.80;;;25.00;99.90;;;;;;5066855;28;20041;-71
2022/07/24 11:03:54;;;;;;;3.30;1.90;;;26.40;99.90;;;;;;5048985;28;20072;-70
2022/07/24 11:06:47;;;;;;;3.22;2.10;;;26.20;99.90;;;;;;5050467;28;20494;-70
2022/07/24 11:09:15;;;;;;;2.40;1.52;;;26.50;99.90;;;;;;5045726;28;20120;-71
2022/07/24 11:11:51;;;;;;;3.55;1.88;;;25.20;99.90;;;;;;5051814;28;20518;-71
2022/07/24 11:14:45;;;;;;;4.28;1.67;;;25.30;99.90;;;;;;5050020;28;20037;-71
2022/07/24 11:17:38;;;;;;;4.10;1.77;;;25.40;99.90;;;;;;5044977;28;20483;-71
2022/07/24 11:20:06;;;;;;;3.97;2.10;;;25.30;99.90;;;;;;5047123;28;20098;-70
2022/07/24 11:22:47;;;;;;;3.03;1.80;;;25.30;99.90;;;;;;5049969;28;20048;-70
2022/07/24 11:25:24;;;;;;;5.47;1.75;;;25.50;99.90;;;;;;5050312;28;20049;-70
2022/07/24 11:28:17;;;;;;;3.83;2.30;;;25.20;99.90;;;;;;5051621;28;20116;-71
2022/07/24 11:30:45;;;;;;;5.93;1.98;;;25.40;99.90;;;;;;5049271;28;20068;-71
2022/07/24 11:33:11;;;;;;;3.25;1.60;;;27.10;99.90;;;;;;5051405;28;20098;-71
2022/07/24 11:35:38;;;;;;;3.97;1.70;;;25.40;99.90;;;;;;5052185;28;20037;-71
2022/07/24 11:38:06;;;;;;;3.63;1.55;;;25.30;99.90;;;;;;5051411;28;20483;-71
2022/07/24 11:40:33;;;;;;;5.35;1.73;;;25.20;99.90;;;;;;5049197;28;20033;-71
2022/07/24 11:43:01;;;;;;;4.70;1.60;;;25.80;99.90;;;;;;5033373;28;20044;-71
2022/07/24 11:45:27;;;;;;;3.58;2.05;;;25.50;99.90;;;;;;5045787;28;20033;-71
2022/07/24 11:47:56;;;;;;;2.92;1.73;;;25.60;99.90;;;;;;5051601;28;20090;-70
2022/07/24 11:50:23;;;;;;;4.82;1.80;;;27.30;99.90;;;;;;5049155;28;20556;-71
2022/07/24 11:52:49;;;;;;;4.07;1.67;;;27.40;99.90;;;;;;5051230;28;20040;-70
2022/07/24 11:55:21;;;;;;;4.72;1.60;;;25.80;99.90;;;;;;5050108;28;20160;-71
2022/07/24 11:57:49;;;;;;;5.35;2.05;;;25.60;99.90;;;;;;5042913;28;20091;-71
2022/07/24 12:00:20;;;;;;;3.33;1.90;;;25.70;99.90;;;;;;5050553;28;20033;-71
2022/07/24 12:02:58;;;;;;;3.58;1.85;;;25.70;99.90;;;;;;5044150;28;20095;-71
2022/07/24 12:05:26;;;;;;;2.50;1.48;;;25.70;99.90;;;;;;5049893;28;20044;-70
2022/07/24 12:07:52;;;;;;;6.50;1.88;;;27.70;99.90;;;;;;5051482;28;20032;-71
2022/07/24 12:10:22;;;;;;;6.85;1.45;;;25.60;99.90;;;;;;5056832;28;20033;-71
2022/07/24 12:12:49;;;;;;;3.33;1.67;;;25.70;99.90;;;;;;5046191;28;20037;-70
2022/07/24 12:15:15;;;;;;;4.43;1.85;;;25.30;99.90;;;;;;5049521;28;20410;-70
2022/07/24 12:18:03;;;;;;;3.35;1.70;;;25.30;99.90;;;;;;5045684;28;20053;-67
2022/07/24 12:20:39;;;;;;;3.45;2.00;;;25.30;99.90;;;;;;5049279;28;20048;-67
2022/07/24 12:23:12;;;;;;;3.67;1.83;;;25.20;99.90;;;;;;5049674;28;20075;-67
2022/07/24 12:25:38;;;;;;;4.30;1.85;;;25.30;99.90;;;;;;5052318;28;20387;-67
2022/07/24 12:28:08;;;;;;;4.88;1.60;;;25.50;99.90;;;;;;5053572;28;20064;-66
2022/07/24 12:30:47;;;;;;;2.88;1.80;;;25.50;99.90;;;;;;5054196;28;20043;-65
2022/07/24 12:33:29;;;;;;;7.03;1.98;;;25.70;99.90;;;;;;5032521;28;20069;-66
2022/07/24 12:36:08;;;;;;;4.60;2.28;;;25.60;99.90;;;;;;5048129;28;20044;-70
2022/07/24 12:38:36;;;;;;;4.68;2.10;;;26.00;99.90;;;;;;5052101;28;20128;-69
2022/07/24 12:41:04;;;;;;;5.22;1.65;;;25.80;99.90;;;;;;5052996;28;20052;-70
2022/07/24 12:43:30;;;;;;;4.30;1.92;;;26.00;99.90;;;;;;5052901;28;20037;-69
2022/07/24 12:46:10;;;;;;;2.63;1.73;;;25.70;99.90;;;;;;5051007;28;20036;-69
2022/07/24 12:48:36;;;;;;;3.53;1.60;;;27.80;99.90;;;;;;5054326;28;20047;-69
2022/07/24 12:51:11;;;;;;;4.65;1.88;;;26.20;99.90;;;;;;5054214;28;20037;-70